Time,TemperatureF,DewpointF,PressureIn,WindDirection,WindDirectionDegrees,WindSpeedMPH,WindSpeedGustMPH,Humidity,HourlyPrecipIn,Conditions,Clouds,dailyrainin,SoftwareType,DateUTC
2013-02-16 00:01:00,30.4,19.5,-100.00,North,-999,-999.0,-999.0,60,-99.99,,,-99.99,WSDL version 420,2013-02-16 07:01:00,
2013-02-16 00:06:00,30.4,19.5,-100.00,North,-999,-999.0,-999.0,60,-99.99,,,-99.99,WSDL version 420,2013-02-16 07:06:00,
2013-02-16 00:11:00,30.4,19.5,-100.00,North,-999,-999.0,-999.0,60,-99.99,,,-99.99,WSDL version 420,2013-02-16 07:11:00,
2013-02-16 00:16:00,30.4,19.5,-100.00,North,-999,-999.0,-999.0,60,-99.99,,,-99.99,WSDL version 420,2013-02-16 07:16:00,
2013-02-16 00:21:00,30.4,19.5,-100.00,North,-999,-999.0,-999.0,60,-99.99,,,-99.99,WSDL version 420,2013-02-16 07:21:00,
2013-02-16 00:26:00,30.4,19.5,-100.00,North,-999,-999.0,-999.0,60,-99.99,,,-99.99,WSDL version 420,2013-02-16 07:26:00,
2013-02-16 00:31:00,30.4,19.5,-100.00,North,-999,-999.0,-999.0,60,-99.99,,,-99.99,WSDL version 420,2013-02-16 07:31:00,
2013-02-16 00:36:00,30.4,19.5,-100.00,North,-999,-999.0,-999.0,60,-99.99,,,-99.99,WSDL version 420,2013-02-16 07:36:00,
2013-02-16 00:41:00,30.4,19.5,-100.00,North,-999,-999.0,-999.0,60,-99.99,,,-99.99,WSDL version 420,2013-02-16 07:41:00,
2013-02-16 00:46:00,30.4,19.5,-100.00,North,-999,-999.0,-999.0,60,-99.99,,,-99.99,WSDL version 420,2013-02-16 07:46:00,
2013-02-16 00:51:00,30.4,19.5,-100.00,North,-999,-999.0,-999.0,60,-99.99,,,-99.99,WSDL version 420,2013-02-16 07:51:00,
2013-02-16 00:56:00,30.4,19.5,-100.00,North,-999,-999.0,-999.0,60,-99.99,,,-99.99,WSDL version 420,2013-02-16 07:56:00,
2013-02-16 01:01:00,30.4,19.5,-100.00,North,-999,-999.0,-999.0,60,-99.99,,,-99.99,WSDL version 420,2013-02-16 08:01:00,
2013-02-16 01:13:00,30.4,19.5,-100.00,North,-999,-999.0,-999.0,60,-99.99,,,-99.99,WSDL version 420,2013-02-16 08:13:00,
2013-02-16 01:18:00,30.4,19.5,-100.00,North,-999,-999.0,-999.0,60,-99.99,,,-99.99,WSDL version 420,2013-02-16 08:18:00,
2013-02-16 01:23:00,30.3,19.4,-100.00,North,-999,-999.0,-999.0,60,-99.99,,,-99.99,WSDL version 420,2013-02-16 08:23:00,
2013-02-16 01:28:00,30.2,19.4,-100.00,North,-999,-999.0,-999.0,61,-99.99,,,-99.99,WSDL version 420,2013-02-16 08:28:00,
2013-02-16 01:33:00,30.2,19.7,-100.00,North,-999,-999.0,-999.0,60,-99.99,,,-99.99,WSDL version 420,2013-02-16 08:33:00,
2013-02-16 01:38:00,30.1,19.5,-100.00,North,-999,-999.0,-999.0,61,-99.99,,,-99.99,WSDL version 420,2013-02-16 08:38:00,
2013-02-16 01:43:00,30.0,19.5,-100.00,North,-999,-999.0,-999.0,61,-99.99,,,-99.99,WSDL version 420,2013-02-16 08:43:00,
2013-02-16 01:48:00,30.0,19.5,-100.00,North,-999,-999.0,-999.0,61,-99.99,,,-99.99,WSDL version 420,2013-02-16 08:48:00,
2013-02-16 01:53:00,30.0,19.5,-100.00,North,-999,-999.0,-999.0,61,-99.99,,,-99.99,WSDL version 420,2013-02-16 08:53:00,
2013-02-16 01:58:00,30.0,19.5,-100.00,North,-999,-999.0,-999.0,61,-99.99,,,-99.99,WSDL version 420,2013-02-16 08:58:00,
2013-02-16 02:13:00,30.0,19.5,-100.00,North,-999,-999.0,-999.0,61,-99.99,,,-99.99,WSDL version 420,2013-02-16 09:13:00,
2013-02-16 02:18:00,30.0,19.5,-100.00,North,-999,-999.0,-999.0,61,-99.99,,,-99.99,WSDL version 420,2013-02-16 09:18:00,
2013-02-16 02:23:00,30.0,19.5,-100.00,North,-999,-999.0,-999.0,61,-99.99,,,-99.99,WSDL version 420,2013-02-16 09:23:00,
2013-02-16 02:28:00,30.0,19.5,-100.00,North,-999,-999.0,-999.0,61,-99.99,,,-99.99,WSDL version 420,2013-02-16 09:28:00,
2013-02-16 02:33:00,29.8,19.4,-100.00,North,-999,-999.0,-999.0,61,-99.99,,,-99.99,WSDL version 420,2013-02-16 09:33:00,
2013-02-16 02:38:00,30.0,19.5,-100.00,North,-999,-999.0,-999.0,61,-99.99,,,-99.99,WSDL version 420,2013-02-16 09:38:00,
2013-02-16 02:43:00,29.8,19.2,-100.00,North,-999,-999.0,-999.0,61,-99.99,,,-99.99,WSDL version 420,2013-02-16 09:43:00,
2013-02-16 02:48:00,29.8,19.3,-100.00,North,-999,-999.0,-999.0,61,-99.99,,,-99.99,WSDL version 420,2013-02-16 09:48:00,
2013-02-16 02:53:00,29.7,19.1,-100.00,North,-999,-999.0,-999.0,60,-99.99,,,-99.99,WSDL version 420,2013-02-16 09:53:00,
2013-02-16 02:58:00,29.7,19.2,-100.00,North,-999,-999.0,-999.0,61,-99.99,,,-99.99,WSDL version 420,2013-02-16 09:58:00,
2013-02-16 03:13:00,29.5,19.0,-100.00,North,-999,-999.0,-999.0,61,-99.99,,,-99.99,WSDL version 420,2013-02-16 10:13:00,
2013-02-16 03:18:00,29.5,18.8,-100.00,North,-999,-999.0,-999.0,60,-99.99,,,-99.99,WSDL version 420,2013-02-16 10:18:00,
2013-02-16 03:23:00,29.5,18.7,-100.00,North,-999,-999.0,-999.0,60,-99.99,,,-99.99,WSDL version 420,2013-02-16 10:23:00,
2013-02-16 03:28:00,29.5,18.7,-100.00,North,-999,-999.0,-999.0,60,-99.99,,,-99.99,WSDL version 420,2013-02-16 10:28:00,
2013-02-16 03:33:00,29.3,18.5,-100.00,North,-999,-999.0,-999.0,60,-99.99,,,-99.99,WSDL version 420,2013-02-16 10:33:00,
2013-02-16 03:38:00,29.1,18.3,-100.00,North,-999,-999.0,-999.0,60,-99.99,,,-99.99,WSDL version 420,2013-02-16 10:38:00,
2013-02-16 03:43:00,29.1,18.3,-100.00,North,-999,-999.0,-999.0,60,-99.99,,,-99.99,WSDL version 420,2013-02-16 10:43:00,
2013-02-16 03:48:00,28.8,18.0,-100.00,North,-999,-999.0,-999.0,60,-99.99,,,-99.99,WSDL version 420,2013-02-16 10:48:00,
2013-02-16 03:53:00,28.4,17.9,-100.00,North,-999,-999.0,-999.0,61,-99.99,,,-99.99,WSDL version 420,2013-02-16 10:53:00,
2013-02-16 03:58:00,28.2,17.8,-100.00,North,-999,-999.0,-999.0,61,-99.99,,,-99.99,WSDL version 420,2013-02-16 10:58:00,
2013-02-16 04:03:00,28.0,17.6,-100.00,North,-999,-999.0,-999.0,61,-99.99,,,-99.99,WSDL version 420,2013-02-16 11:03:00,
2013-02-16 04:08:00,28.0,17.6,-100.00,North,-999,-999.0,-999.0,61,-99.99,,,-99.99,WSDL version 420,2013-02-16 11:08:00,
2013-02-16 04:13:00,27.9,17.5,-100.00,North,-999,-999.0,-999.0,61,-99.99,,,-99.99,WSDL version 420,2013-02-16 11:13:00,
2013-02-16 04:18:00,27.7,17.3,-100.00,North,-999,-999.0,-999.0,61,-99.99,,,-99.99,WSDL version 420,2013-02-16 11:18:00,
2013-02-16 04:23:00,27.5,17.1,-100.00,North,-999,-999.0,-999.0,61,-99.99,,,-99.99,WSDL version 420,2013-02-16 11:23:00,
2013-02-16 04:28:00,27.6,17.4,-100.00,North,-999,-999.0,-999.0,62,-99.99,,,-99.99,WSDL version 420,2013-02-16 11:28:00,
2013-02-16 04:33:00,27.6,17.6,-100.00,North,-999,-999.0,-999.0,62,-99.99,,,-99.99,WSDL version 420,2013-02-16 11:33:00,
2013-02-16 04:38:00,27.3,17.3,-100.00,North,-999,-999.0,-999.0,62,-99.99,,,-99.99,WSDL version 420,2013-02-16 11:38:00,
2013-02-16 04:43:00,27.3,17.3,-100.00,North,-999,-999.0,-999.0,62,-99.99,,,-99.99,WSDL version 420,2013-02-16 11:43:00,
2013-02-16 04:48:00,27.3,17.3,-100.00,North,-999,-999.0,-999.0,62,-99.99,,,-99.99,WSDL version 420,2013-02-16 11:48:00,
2013-02-16 04:53:00,27.3,17.3,-100.00,North,-999,-999.0,-999.0,62,-99.99,,,-99.99,WSDL version 420,2013-02-16 11:53:00,
2013-02-16 04:58:00,27.2,17.2,-100.00,North,-999,-999.0,-999.0,62,-99.99,,,-99.99,WSDL version 420,2013-02-16 11:58:00,
2013-02-16 05:03:00,27.3,17.3,-100.00,North,-999,-999.0,-999.0,62,-99.99,,,-99.99,WSDL version 420,2013-02-16 12:03:00,
2013-02-16 05:08:00,27.5,17.5,-100.00,North,-999,-999.0,-999.0,62,-99.99,,,-99.99,WSDL version 420,2013-02-16 12:08:00,
2013-02-16 05:13:00,27.7,18.0,-100.00,North,-999,-999.0,-999.0,63,-99.99,,,-99.99,WSDL version 420,2013-02-16 12:13:00,
2013-02-16 05:18:00,28.1,18.4,-100.00,North,-999,-999.0,-999.0,63,-99.99,,,-99.99,WSDL version 420,2013-02-16 12:18:00,
2013-02-16 05:23:00,28.5,18.5,-100.00,North,-999,-999.0,-999.0,62,-99.99,,,-99.99,WSDL version 420,2013-02-16 12:23:00,
2013-02-16 05:28:00,28.8,18.7,-100.00,North,-999,-999.0,-999.0,62,-99.99,,,-99.99,WSDL version 420,2013-02-16 12:28:00,
2013-02-16 05:33:00,29.1,19.0,-100.00,North,-999,-999.0,-999.0,62,-99.99,,,-99.99,WSDL version 420,2013-02-16 12:33:00,
2013-02-16 05:38:00,29.2,19.1,-100.00,North,-999,-999.0,-999.0,62,-99.99,,,-99.99,WSDL version 420,2013-02-16 12:38:00,
2013-02-16 05:43:00,29.4,19.3,-100.00,North,-999,-999.0,-999.0,62,-99.99,,,-99.99,WSDL version 420,2013-02-16 12:43:00,
2013-02-16 05:48:00,29.5,19.4,-100.00,North,-999,-999.0,-999.0,62,-99.99,,,-99.99,WSDL version 420,2013-02-16 12:48:00,
2013-02-16 05:53:00,29.7,19.3,-100.00,North,-999,-999.0,-999.0,61,-99.99,,,-99.99,WSDL version 420,2013-02-16 12:53:00,
2013-02-16 05:58:00,29.7,19.2,-100.00,North,-999,-999.0,-999.0,61,-99.99,,,-99.99,WSDL version 420,2013-02-16 12:58:00,
2013-02-16 06:03:00,29.7,19.2,-100.00,North,-999,-999.0,-999.0,61,-99.99,,,-99.99,WSDL version 420,2013-02-16 13:03:00,
2013-02-16 06:08:00,29.7,19.2,-100.00,North,-999,-999.0,-999.0,61,-99.99,,,-99.99,WSDL version 420,2013-02-16 13:08:00,
2013-02-16 06:13:00,29.6,19.1,-100.00,North,-999,-999.0,-999.0,61,-99.99,,,-99.99,WSDL version 420,2013-02-16 13:13:00,
2013-02-16 06:18:00,29.6,19.1,-100.00,North,-999,-999.0,-999.0,61,-99.99,,,-99.99,WSDL version 420,2013-02-16 13:18:00,
2013-02-16 06:23:00,29.7,19.2,-100.00,North,-999,-999.0,-999.0,61,-99.99,,,-99.99,WSDL version 420,2013-02-16 13:23:00,
2013-02-16 06:28:00,29.7,19.2,-100.00,North,-999,-999.0,-999.0,61,-99.99,,,-99.99,WSDL version 420,2013-02-16 13:28:00,
2013-02-16 06:33:00,29.7,19.2,-100.00,North,-999,-999.0,-999.0,61,-99.99,,,-99.99,WSDL version 420,2013-02-16 13:33:00,
2013-02-16 06:38:00,29.7,19.2,-100.00,North,-999,-999.0,-999.0,61,-99.99,,,-99.99,WSDL version 420,2013-02-16 13:38:00,
2013-02-16 06:43:00,29.7,19.2,-100.00,North,-999,-999.0,-999.0,61,-99.99,,,-99.99,WSDL version 420,2013-02-16 13:43:00,
2013-02-16 06:48:00,29.7,19.2,-100.00,North,-999,-999.0,-999.0,61,-99.99,,,-99.99,WSDL version 420,2013-02-16 13:48:00,
2013-02-16 06:53:00,29.7,19.2,-100.00,North,-999,-999.0,-999.0,61,-99.99,,,-99.99,WSDL version 420,2013-02-16 13:53:00,
2013-02-16 06:58:00,29.7,19.2,-100.00,North,-999,-999.0,-999.0,61,-99.99,,,-99.99,WSDL version 420,2013-02-16 13:58:00,
2013-02-16 07:03:00,29.7,19.2,-100.00,North,-999,-999.0,-999.0,61,-99.99,,,-99.99,WSDL version 420,2013-02-16 14:03:00,
2013-02-16 07:08:00,29.5,18.9,-100.00,North,-999,-999.0,-999.0,60,-99.99,,,-99.99,WSDL version 420,2013-02-16 14:08:00,
2013-02-16 07:13:00,29.5,18.7,-100.00,North,-999,-999.0,-999.0,60,-99.99,,,-99.99,WSDL version 420,2013-02-16 14:13:00,
2013-02-16 07:18:00,29.5,18.7,-100.00,North,-999,-999.0,-999.0,60,-99.99,,,-99.99,WSDL version 420,2013-02-16 14:18:00,
2013-02-16 07:23:00,29.5,18.7,-100.00,North,-999,-999.0,-999.0,60,-99.99,,,-99.99,WSDL version 420,2013-02-16 14:23:00,
2013-02-16 07:28:00,29.5,18.8,-100.00,North,-999,-999.0,-999.0,61,-99.99,,,-99.99,WSDL version 420,2013-02-16 14:28:00,
2013-02-16 07:33:00,29.5,19.0,-100.00,North,-999,-999.0,-999.0,61,-99.99,,,-99.99,WSDL version 420,2013-02-16 14:33:00,
2013-02-16 07:38:00,29.5,19.0,-100.00,North,-999,-999.0,-999.0,61,-99.99,,,-99.99,WSDL version 420,2013-02-16 14:38:00,
2013-02-16 07:43:00,29.7,19.2,-100.00,North,-999,-999.0,-999.0,61,-99.99,,,-99.99,WSDL version 420,2013-02-16 14:43:00,
2013-02-16 07:48:00,29.7,19.3,-100.00,North,-999,-999.0,-999.0,61,-99.99,,,-99.99,WSDL version 420,2013-02-16 14:48:00,
2013-02-16 07:53:00,29.9,19.1,-100.00,North,-999,-999.0,-999.0,60,-99.99,,,-99.99,WSDL version 420,2013-02-16 14:53:00,
2013-02-16 07:58:00,30.0,19.2,-100.00,North,-999,-999.0,-999.0,60,-99.99,,,-99.99,WSDL version 420,2013-02-16 14:58:00,
2013-02-16 08:03:00,30.2,19.4,-100.00,North,-999,-999.0,-999.0,60,-99.99,,,-99.99,WSDL version 420,2013-02-16 15:03:00,
2013-02-16 08:08:00,30.2,19.4,-100.00,North,-999,-999.0,-999.0,60,-99.99,,,-99.99,WSDL version 420,2013-02-16 15:08:00,
2013-02-16 08:13:00,30.4,19.6,-100.00,North,-999,-999.0,-999.0,60,-99.99,,,-99.99,WSDL version 420,2013-02-16 15:13:00,
2013-02-16 08:18:00,30.6,19.8,-100.00,North,-999,-999.0,-999.0,60,-99.99,,,-99.99,WSDL version 420,2013-02-16 15:18:00,
2013-02-16 08:23:00,30.9,20.0,-100.00,North,-999,-999.0,-999.0,60,-99.99,,,-99.99,WSDL version 420,2013-02-16 15:23:00,
2013-02-16 08:28:00,31.1,20.0,-100.00,North,-999,-999.0,-999.0,59,-99.99,,,-99.99,WSDL version 420,2013-02-16 15:28:00,
2013-02-16 08:33:00,31.3,20.1,-100.00,North,-999,-999.0,-999.0,59,-99.99,,,-99.99,WSDL version 420,2013-02-16 15:33:00,
2013-02-16 08:38:00,31.5,20.3,-100.00,North,-999,-999.0,-999.0,59,-99.99,,,-99.99,WSDL version 420,2013-02-16 15:38:00,
2013-02-16 08:43:00,31.8,20.5,-100.00,North,-999,-999.0,-999.0,59,-99.99,,,-99.99,WSDL version 420,2013-02-16 15:43:00,
2013-02-16 08:48:00,32.1,19.8,-100.00,North,-999,-999.0,-999.0,59,-99.99,,,-99.99,WSDL version 420,2013-02-16 15:48:00,
2013-02-16 08:53:00,32.5,19.8,-100.00,North,-999,-999.0,-999.0,59,-99.99,,,-99.99,WSDL version 420,2013-02-16 15:53:00,
2013-02-16 08:58:00,32.9,20.1,-100.00,North,-999,-999.0,-999.0,59,-99.99,,,-99.99,WSDL version 420,2013-02-16 15:58:00,
2013-02-16 09:13:00,34.1,20.8,-100.00,North,-999,-999.0,-999.0,58,-99.99,,,-99.99,WSDL version 420,2013-02-16 16:13:00,
2013-02-16 09:18:00,34.4,20.8,-100.00,North,-999,-999.0,-999.0,57,-99.99,,,-99.99,WSDL version 420,2013-02-16 16:18:00,
2013-02-16 09:23:00,34.8,21.0,-100.00,North,-999,-999.0,-999.0,56,-99.99,,,-99.99,WSDL version 420,2013-02-16 16:23:00,
2013-02-16 09:28:00,35.2,21.1,-100.00,North,-999,-999.0,-999.0,56,-99.99,,,-99.99,WSDL version 420,2013-02-16 16:28:00,
2013-02-16 09:33:00,35.6,21.5,-100.00,North,-999,-999.0,-999.0,56,-99.99,,,-99.99,WSDL version 420,2013-02-16 16:33:00,
2013-02-16 09:38:00,36.2,22.0,-100.00,North,-999,-999.0,-999.0,56,-99.99,,,-99.99,WSDL version 420,2013-02-16 16:38:00,
2013-02-16 09:43:00,36.9,22.7,-100.00,North,-999,-999.0,-999.0,56,-99.99,,,-99.99,WSDL version 420,2013-02-16 16:43:00,
2013-02-16 09:48:00,37.7,23.0,-100.00,North,-999,-999.0,-999.0,55,-99.99,,,-99.99,WSDL version 420,2013-02-16 16:48:00,
2013-02-16 09:53:00,38.7,23.9,-100.00,North,-999,-999.0,-999.0,55,-99.99,,,-99.99,WSDL version 420,2013-02-16 16:53:00,
2013-02-16 09:58:00,39.5,24.3,-100.00,North,-999,-999.0,-999.0,53,-99.99,,,-99.99,WSDL version 420,2013-02-16 16:58:00,
2013-02-16 10:03:00,40.1,24.4,-100.00,North,-999,-999.0,-999.0,53,-99.99,,,-99.99,WSDL version 420,2013-02-16 17:03:00,
2013-02-16 10:08:00,41.1,25.3,-100.00,North,-999,-999.0,-999.0,53,-99.99,,,-99.99,WSDL version 420,2013-02-16 17:08:00,
2013-02-16 10:13:00,41.8,25.5,-100.00,North,-999,-999.0,-999.0,52,-99.99,,,-99.99,WSDL version 420,2013-02-16 17:13:00,
2013-02-16 10:18:00,42.9,26.4,-100.00,North,-999,-999.0,-999.0,51,-99.99,,,-99.99,WSDL version 420,2013-02-16 17:18:00,
2013-02-16 10:23:00,44.2,27.4,-100.00,North,-999,-999.0,-999.0,51,-99.99,,,-99.99,WSDL version 420,2013-02-16 17:23:00,
2013-02-16 10:28:00,45.2,28.1,-100.00,North,-999,-999.0,-999.0,51,-99.99,,,-99.99,WSDL version 420,2013-02-16 17:28:00,
2013-02-16 10:33:00,45.8,28.4,-100.00,North,-999,-999.0,-999.0,50,-99.99,,,-99.99,WSDL version 420,2013-02-16 17:33:00,
2013-02-16 10:38:00,46.4,28.8,-100.00,North,-999,-999.0,-999.0,50,-99.99,,,-99.99,WSDL version 420,2013-02-16 17:38:00,
2013-02-16 10:43:00,47.2,29.5,-100.00,North,-999,-999.0,-999.0,50,-99.99,,,-99.99,WSDL version 420,2013-02-16 17:43:00,
2013-02-16 10:48:00,48.0,30.0,-100.00,North,-999,-999.0,-999.0,49,-99.99,,,-99.99,WSDL version 420,2013-02-16 17:48:00,
2013-02-16 10:53:00,48.2,29.7,-100.00,North,-999,-999.0,-999.0,48,-99.99,,,-99.99,WSDL version 420,2013-02-16 17:53:00,
2013-02-16 10:58:00,48.7,30.3,-100.00,North,-999,-999.0,-999.0,48,-99.99,,,-99.99,WSDL version 420,2013-02-16 17:58:00,
2013-02-16 11:03:00,48.9,29.9,-100.00,North,-999,-999.0,-999.0,47,-99.99,,,-99.99,WSDL version 420,2013-02-16 18:03:00,
2013-02-16 11:08:00,48.7,29.4,-100.00,North,-999,-999.0,-999.0,47,-99.99,,,-99.99,WSDL version 420,2013-02-16 18:08:00,
2013-02-16 11:13:00,49.3,30.2,-100.00,North,-999,-999.0,-999.0,47,-99.99,,,-99.99,WSDL version 420,2013-02-16 18:13:00,
2013-02-16 11:18:00,49.6,30.3,-100.00,North,-999,-999.0,-999.0,47,-99.99,,,-99.99,WSDL version 420,2013-02-16 18:18:00,
2013-02-16 11:23:00,49.3,29.9,-100.00,North,-999,-999.0,-999.0,47,-99.99,,,-99.99,WSDL version 420,2013-02-16 18:23:00,
2013-02-16 11:28:00,49.7,30.3,-100.00,North,-999,-999.0,-999.0,47,-99.99,,,-99.99,WSDL version 420,2013-02-16 18:28:00,
2013-02-16 11:33:00,49.8,30.3,-100.00,North,-999,-999.0,-999.0,47,-99.99,,,-99.99,WSDL version 420,2013-02-16 18:33:00,
2013-02-16 11:38:00,50.0,30.0,-100.00,North,-999,-999.0,-999.0,46,-99.99,,,-99.99,WSDL version 420,2013-02-16 18:38:00,
2013-02-16 11:43:00,50.3,30.3,-100.00,North,-999,-999.0,-999.0,46,-99.99,,,-99.99,WSDL version 420,2013-02-16 18:43:00,
2013-02-16 11:48:00,50.4,30.4,-100.00,North,-999,-999.0,-999.0,46,-99.99,,,-99.99,WSDL version 420,2013-02-16 18:48:00,
2013-02-16 11:53:00,50.5,30.5,-100.00,North,-999,-999.0,-999.0,46,-99.99,,,-99.99,WSDL version 420,2013-02-16 18:53:00,
2013-02-16 11:58:00,50.8,30.8,-100.00,North,-999,-999.0,-999.0,46,-99.99,,,-99.99,WSDL version 420,2013-02-16 18:58:00,
2013-02-16 12:03:00,51.2,31.1,-100.00,North,-999,-999.0,-999.0,46,-99.99,,,-99.99,WSDL version 420,2013-02-16 19:03:00,
2013-02-16 12:08:00,51.5,31.5,-100.00,North,-999,-999.0,-999.0,46,-99.99,,,-99.99,WSDL version 420,2013-02-16 19:08:00,
2013-02-16 12:13:00,51.6,31.5,-100.00,North,-999,-999.0,-999.0,46,-99.99,,,-99.99,WSDL version 420,2013-02-16 19:13:00,
2013-02-16 12:18:00,51.6,31.5,-100.00,North,-999,-999.0,-999.0,46,-99.99,,,-99.99,WSDL version 420,2013-02-16 19:18:00,
2013-02-16 12:23:00,51.4,30.5,-100.00,North,-999,-999.0,-999.0,44,-99.99,,,-99.99,WSDL version 420,2013-02-16 19:23:00,
2013-02-16 12:28:00,50.9,29.7,-100.00,North,-999,-999.0,-999.0,45,-99.99,,,-99.99,WSDL version 420,2013-02-16 19:28:00,
2013-02-16 12:33:00,51.1,30.1,-100.00,North,-999,-999.0,-999.0,44,-99.99,,,-99.99,WSDL version 420,2013-02-16 19:33:00,
2013-02-16 12:38:00,50.9,29.4,-100.00,North,-999,-999.0,-999.0,44,-99.99,,,-99.99,WSDL version 420,2013-02-16 19:38:00,
2013-02-16 12:43:00,50.7,29.6,-100.00,North,-999,-999.0,-999.0,45,-99.99,,,-99.99,WSDL version 420,2013-02-16 19:43:00,
2013-02-16 12:48:00,50.8,30.2,-100.00,North,-999,-999.0,-999.0,45,-99.99,,,-99.99,WSDL version 420,2013-02-16 19:48:00,
2013-02-16 12:53:00,50.6,30.0,-100.00,North,-999,-999.0,-999.0,45,-99.99,,,-99.99,WSDL version 420,2013-02-16 19:53:00,
2013-02-16 12:58:00,50.1,29.4,-100.00,North,-999,-999.0,-999.0,45,-99.99,,,-99.99,WSDL version 420,2013-02-16 19:58:00,
2013-02-16 13:03:00,49.9,29.4,-100.00,North,-999,-999.0,-999.0,45,-99.99,,,-99.99,WSDL version 420,2013-02-16 20:03:00,
2013-02-16 13:08:00,49.8,29.5,-100.00,North,-999,-999.0,-999.0,45,-99.99,,,-99.99,WSDL version 420,2013-02-16 20:08:00,
2013-02-16 13:13:00,49.8,29.8,-100.00,North,-999,-999.0,-999.0,45,-99.99,,,-99.99,WSDL version 420,2013-02-16 20:13:00,
2013-02-16 13:18:00,49.5,29.1,-100.00,North,-999,-999.0,-999.0,45,-99.99,,,-99.99,WSDL version 420,2013-02-16 20:18:00,
2013-02-16 13:23:00,49.5,29.0,-100.00,North,-999,-999.0,-999.0,45,-99.99,,,-99.99,WSDL version 420,2013-02-16 20:23:00,
2013-02-16 13:28:00,49.6,29.6,-100.00,North,-999,-999.0,-999.0,46,-99.99,,,-99.99,WSDL version 420,2013-02-16 20:28:00,
2013-02-16 13:33:00,49.5,29.5,-100.00,North,-999,-999.0,-999.0,46,-99.99,,,-99.99,WSDL version 420,2013-02-16 20:33:00,
2013-02-16 13:38:00,49.4,29.1,-100.00,North,-999,-999.0,-999.0,45,-99.99,,,-99.99,WSDL version 420,2013-02-16 20:38:00,
2013-02-16 13:43:00,48.9,28.5,-100.00,North,-999,-999.0,-999.0,45,-99.99,,,-99.99,WSDL version 420,2013-02-16 20:43:00,
2013-02-16 13:48:00,48.1,27.8,-100.00,North,-999,-999.0,-999.0,45,-99.99,,,-99.99,WSDL version 420,2013-02-16 20:48:00,
2013-02-16 13:53:00,47.6,27.7,-100.00,North,-999,-999.0,-999.0,46,-99.99,,,-99.99,WSDL version 420,2013-02-16 20:53:00,
2013-02-16 13:58:00,47.3,27.6,-100.00,North,-999,-999.0,-999.0,46,-99.99,,,-99.99,WSDL version 420,2013-02-16 20:58:00,
2013-02-16 14:03:00,47.4,28.0,-100.00,North,-999,-999.0,-999.0,47,-99.99,,,-99.99,WSDL version 420,2013-02-16 21:03:00,
2013-02-16 14:08:00,48.0,28.5,-100.00,North,-999,-999.0,-999.0,46,-99.99,,,-99.99,WSDL version 420,2013-02-16 21:08:00,
2013-02-16 14:13:00,48.7,28.8,-100.00,North,-999,-999.0,-999.0,46,-99.99,,,-99.99,WSDL version 420,2013-02-16 21:13:00,
2013-02-16 14:18:00,49.0,29.1,-100.00,North,-999,-999.0,-999.0,46,-99.99,,,-99.99,WSDL version 420,2013-02-16 21:18:00,
2013-02-16 14:23:00,49.3,29.3,-100.00,North,-999,-999.0,-999.0,46,-99.99,,,-99.99,WSDL version 420,2013-02-16 21:23:00,
2013-02-16 14:28:00,49.5,29.6,-100.00,North,-999,-999.0,-999.0,46,-99.99,,,-99.99,WSDL version 420,2013-02-16 21:28:00,
2013-02-16 14:33:00,49.6,29.5,-100.00,North,-999,-999.0,-999.0,45,-99.99,,,-99.99,WSDL version 420,2013-02-16 21:33:00,
2013-02-16 14:38:00,49.6,29.2,-100.00,North,-999,-999.0,-999.0,45,-99.99,,,-99.99,WSDL version 420,2013-02-16 21:38:00,
2013-02-16 14:43:00,49.6,29.5,-100.00,North,-999,-999.0,-999.0,46,-99.99,,,-99.99,WSDL version 420,2013-02-16 21:43:00,
2013-02-16 14:48:00,49.5,29.2,-100.00,North,-999,-999.0,-999.0,46,-99.99,,,-99.99,WSDL version 420,2013-02-16 21:48:00,
2013-02-16 14:53:00,49.5,29.4,-100.00,North,-999,-999.0,-999.0,46,-99.99,,,-99.99,WSDL version 420,2013-02-16 21:53:00,
2013-02-16 14:58:00,49.4,29.2,-100.00,North,-999,-999.0,-999.0,45,-99.99,,,-99.99,WSDL version 420,2013-02-16 21:58:00,
2013-02-16 15:13:00,49.3,29.0,-100.00,North,-999,-999.0,-999.0,45,-99.99,,,-99.99,WSDL version 420,2013-02-16 22:13:00,
2013-02-16 15:18:00,49.1,28.7,-100.00,North,-999,-999.0,-999.0,45,-99.99,,,-99.99,WSDL version 420,2013-02-16 22:18:00,
2013-02-16 15:23:00,48.9,28.5,-100.00,North,-999,-999.0,-999.0,45,-99.99,,,-99.99,WSDL version 420,2013-02-16 22:23:00,
2013-02-16 15:28:00,48.7,28.4,-100.00,North,-999,-999.0,-999.0,45,-99.99,,,-99.99,WSDL version 420,2013-02-16 22:28:00,
2013-02-16 15:33:00,48.9,28.8,-100.00,North,-999,-999.0,-999.0,46,-99.99,,,-99.99,WSDL version 420,2013-02-16 22:33:00,
2013-02-16 15:38:00,49.3,29.4,-100.00,North,-999,-999.0,-999.0,46,-99.99,,,-99.99,WSDL version 420,2013-02-16 22:38:00,
2013-02-16 15:43:00,49.5,29.1,-100.00,North,-999,-999.0,-999.0,45,-99.99,,,-99.99,WSDL version 420,2013-02-16 22:43:00,
2013-02-16 15:48:00,49.7,29.1,-100.00,North,-999,-999.0,-999.0,45,-99.99,,,-99.99,WSDL version 420,2013-02-16 22:48:00,
2013-02-16 15:53:00,49.6,28.8,-100.00,North,-999,-999.0,-999.0,44,-99.99,,,-99.99,WSDL version 420,2013-02-16 22:53:00,
2013-02-16 15:58:00,49.6,28.7,-100.00,North,-999,-999.0,-999.0,44,-99.99,,,-99.99,WSDL version 420,2013-02-16 22:58:00,
2013-02-16 16:03:00,49.3,28.3,-100.00,North,-999,-999.0,-999.0,44,-99.99,,,-99.99,WSDL version 420,2013-02-16 23:03:00,
2013-02-16 16:08:00,49.0,28.4,-100.00,North,-999,-999.0,-999.0,45,-99.99,,,-99.99,WSDL version 420,2013-02-16 23:08:00,
2013-02-16 16:13:00,48.7,28.3,-100.00,North,-999,-999.0,-999.0,45,-99.99,,,-99.99,WSDL version 420,2013-02-16 23:13:00,
2013-02-16 16:18:00,48.4,28.0,-100.00,North,-999,-999.0,-999.0,45,-99.99,,,-99.99,WSDL version 420,2013-02-16 23:18:00,
2013-02-16 16:23:00,48.0,27.7,-100.00,North,-999,-999.0,-999.0,45,-99.99,,,-99.99,WSDL version 420,2013-02-16 23:23:00,
2013-02-16 16:28:00,47.7,27.4,-100.00,North,-999,-999.0,-999.0,45,-99.99,,,-99.99,WSDL version 420,2013-02-16 23:28:00,
2013-02-16 16:33:00,47.5,27.2,-100.00,North,-999,-999.0,-999.0,45,-99.99,,,-99.99,WSDL version 420,2013-02-16 23:33:00,
2013-02-16 16:38:00,47.2,27.5,-100.00,North,-999,-999.0,-999.0,46,-99.99,,,-99.99,WSDL version 420,2013-02-16 23:38:00,
2013-02-16 16:43:00,47.0,27.3,-100.00,North,-999,-999.0,-999.0,46,-99.99,,,-99.99,WSDL version 420,2013-02-16 23:43:00,
2013-02-16 16:48:00,46.9,27.3,-100.00,North,-999,-999.0,-999.0,46,-99.99,,,-99.99,WSDL version 420,2013-02-16 23:48:00,
2013-02-16 16:53:00,46.8,27.1,-100.00,North,-999,-999.0,-999.0,46,-99.99,,,-99.99,WSDL version 420,2013-02-16 23:53:00,
2013-02-16 16:58:00,46.6,26.9,-100.00,North,-999,-999.0,-999.0,46,-99.99,,,-99.99,WSDL version 420,2013-02-16 23:58:00,
2013-02-16 17:03:00,46.3,26.7,-100.00,North,-999,-999.0,-999.0,46,-99.99,,,-99.99,WSDL version 420,2013-02-17 00:03:00,
2013-02-16 17:08:00,46.1,26.5,-100.00,North,-999,-999.0,-999.0,46,-99.99,,,-99.99,WSDL version 420,2013-02-17 00:08:00,
2013-02-16 17:13:00,45.7,26.2,-100.00,North,-999,-999.0,-999.0,46,-99.99,,,-99.99,WSDL version 420,2013-02-17 00:13:00,
2013-02-16 17:18:00,45.4,25.8,-100.00,North,-999,-999.0,-999.0,46,-99.99,,,-99.99,WSDL version 420,2013-02-17 00:18:00,
2013-02-16 17:23:00,45.1,25.6,-100.00,North,-999,-999.0,-999.0,46,-99.99,,,-99.99,WSDL version 420,2013-02-17 00:23:00,
2013-02-16 17:28:00,44.8,25.3,-100.00,North,-999,-999.0,-999.0,46,-99.99,,,-99.99,WSDL version 420,2013-02-17 00:28:00,
2013-02-16 17:33:00,44.4,25.3,-100.00,North,-999,-999.0,-999.0,47,-99.99,,,-99.99,WSDL version 420,2013-02-17 00:33:00,
2013-02-16 17:38:00,44.2,25.3,-100.00,North,-999,-999.0,-999.0,47,-99.99,,,-99.99,WSDL version 420,2013-02-17 00:38:00,
2013-02-16 17:43:00,44.0,25.1,-100.00,North,-999,-999.0,-999.0,47,-99.99,,,-99.99,WSDL version 420,2013-02-17 00:43:00,
2013-02-16 17:48:00,43.7,24.8,-100.00,North,-999,-999.0,-999.0,47,-99.99,,,-99.99,WSDL version 420,2013-02-17 00:48:00,
2013-02-16 17:53:00,43.4,24.6,-100.00,North,-999,-999.0,-999.0,47,-99.99,,,-99.99,WSDL version 420,2013-02-17 00:53:00,
2013-02-16 17:58:00,43.1,24.3,-100.00,North,-999,-999.0,-999.0,47,-99.99,,,-99.99,WSDL version 420,2013-02-17 00:58:00,
2013-02-16 18:03:00,42.9,24.1,-100.00,North,-999,-999.0,-999.0,47,-99.99,,,-99.99,WSDL version 420,2013-02-17 01:03:00,
2013-02-16 18:08:00,42.6,24.2,-100.00,North,-999,-999.0,-999.0,48,-99.99,,,-99.99,WSDL version 420,2013-02-17 01:08:00,
2013-02-16 18:13:00,42.3,24.0,-100.00,North,-999,-999.0,-999.0,48,-99.99,,,-99.99,WSDL version 420,2013-02-17 01:13:00,
2013-02-16 18:18:00,42.0,23.8,-100.00,North,-999,-999.0,-999.0,48,-99.99,,,-99.99,WSDL version 420,2013-02-17 01:18:00,
2013-02-16 18:23:00,41.8,23.5,-100.00,North,-999,-999.0,-999.0,48,-99.99,,,-99.99,WSDL version 420,2013-02-17 01:23:00,
2013-02-16 18:28:00,41.5,23.3,-100.00,North,-999,-999.0,-999.0,48,-99.99,,,-99.99,WSDL version 420,2013-02-17 01:28:00,
2013-02-16 18:33:00,41.2,23.0,-100.00,North,-999,-999.0,-999.0,48,-99.99,,,-99.99,WSDL version 420,2013-02-17 01:33:00,
2013-02-16 18:38:00,41.1,22.9,-100.00,North,-999,-999.0,-999.0,48,-99.99,,,-99.99,WSDL version 420,2013-02-17 01:38:00,
2013-02-16 18:43:00,40.8,23.1,-100.00,North,-999,-999.0,-999.0,49,-99.99,,,-99.99,WSDL version 420,2013-02-17 01:43:00,
2013-02-16 18:48:00,41.0,23.3,-100.00,North,-999,-999.0,-999.0,49,-99.99,,,-99.99,WSDL version 420,2013-02-17 01:48:00,
2013-02-16 18:53:00,40.8,23.6,-100.00,North,-999,-999.0,-999.0,50,-99.99,,,-99.99,WSDL version 420,2013-02-17 01:53:00,
2013-02-16 18:58:00,40.6,23.5,-100.00,North,-999,-999.0,-999.0,50,-99.99,,,-99.99,WSDL version 420,2013-02-17 01:58:00,
2013-02-16 19:03:00,40.5,23.3,-100.00,North,-999,-999.0,-999.0,50,-99.99,,,-99.99,WSDL version 420,2013-02-17 02:03:00,
2013-02-16 19:08:00,40.5,23.3,-100.00,North,-999,-999.0,-999.0,50,-99.99,,,-99.99,WSDL version 420,2013-02-17 02:08:00,
2013-02-16 19:13:00,40.3,23.1,-100.00,North,-999,-999.0,-999.0,50,-99.99,,,-99.99,WSDL version 420,2013-02-17 02:13:00,
2013-02-16 19:18:00,40.1,23.0,-100.00,North,-999,-999.0,-999.0,50,-99.99,,,-99.99,WSDL version 420,2013-02-17 02:18:00,
2013-02-16 19:23:00,39.9,22.8,-100.00,North,-999,-999.0,-999.0,50,-99.99,,,-99.99,WSDL version 420,2013-02-17 02:23:00,
2013-02-16 19:28:00,39.8,22.7,-100.00,North,-999,-999.0,-999.0,50,-99.99,,,-99.99,WSDL version 420,2013-02-17 02:28:00,
2013-02-16 19:33:00,39.7,22.6,-100.00,North,-999,-999.0,-999.0,50,-99.99,,,-99.99,WSDL version 420,2013-02-17 02:33:00,
2013-02-16 19:38:00,39.6,22.5,-100.00,North,-999,-999.0,-999.0,50,-99.99,,,-99.99,WSDL version 420,2013-02-17 02:38:00,
2013-02-16 19:43:00,39.6,22.5,-100.00,North,-999,-999.0,-999.0,50,-99.99,,,-99.99,WSDL version 420,2013-02-17 02:43:00,
2013-02-16 19:48:00,39.4,22.3,-100.00,North,-999,-999.0,-999.0,50,-99.99,,,-99.99,WSDL version 420,2013-02-17 02:48:00,
2013-02-16 19:53:00,39.4,22.3,-100.00,North,-999,-999.0,-999.0,50,-99.99,,,-99.99,WSDL version 420,2013-02-17 02:53:00,
2013-02-16 19:58:00,39.4,22.3,-100.00,North,-999,-999.0,-999.0,50,-99.99,,,-99.99,WSDL version 420,2013-02-17 02:58:00,
2013-02-16 20:03:00,39.3,22.2,-100.00,North,-999,-999.0,-999.0,50,-99.99,,,-99.99,WSDL version 420,2013-02-17 03:03:00,
2013-02-16 20:08:00,39.2,22.1,-100.00,North,-999,-999.0,-999.0,50,-99.99,,,-99.99,WSDL version 420,2013-02-17 03:08:00,
2013-02-16 20:13:00,38.9,21.9,-100.00,North,-999,-999.0,-999.0,50,-99.99,,,-99.99,WSDL version 420,2013-02-17 03:13:00,
2013-02-16 20:18:00,38.8,21.8,-100.00,North,-999,-999.0,-999.0,50,-99.99,,,-99.99,WSDL version 420,2013-02-17 03:18:00,
2013-02-16 20:23:00,38.7,21.7,-100.00,North,-999,-999.0,-999.0,50,-99.99,,,-99.99,WSDL version 420,2013-02-17 03:23:00,
2013-02-16 20:28:00,38.5,21.5,-100.00,North,-999,-999.0,-999.0,50,-99.99,,,-99.99,WSDL version 420,2013-02-17 03:28:00,
2013-02-16 20:33:00,38.3,21.3,-100.00,North,-999,-999.0,-999.0,50,-99.99,,,-99.99,WSDL version 420,2013-02-17 03:33:00,
2013-02-16 20:38:00,38.2,21.2,-100.00,North,-999,-999.0,-999.0,50,-99.99,,,-99.99,WSDL version 420,2013-02-17 03:38:00,
2013-02-16 20:43:00,38.1,21.1,-100.00,North,-999,-999.0,-999.0,50,-99.99,,,-99.99,WSDL version 420,2013-02-17 03:43:00,
2013-02-16 20:48:00,37.9,21.0,-100.00,North,-999,-999.0,-999.0,50,-99.99,,,-99.99,WSDL version 420,2013-02-17 03:48:00,
2013-02-16 20:54:00,37.8,20.8,-100.00,North,-999,-999.0,-999.0,50,-99.99,,,-99.99,WSDL version 420,2013-02-17 03:54:00,
2013-02-16 20:59:00,37.7,20.7,-100.00,North,-999,-999.0,-999.0,50,-99.99,,,-99.99,WSDL version 420,2013-02-17 03:59:00,
2013-02-16 21:13:00,37.4,20.9,-100.00,North,-999,-999.0,-999.0,51,-99.99,,,-99.99,WSDL version 420,2013-02-17 04:13:00,
2013-02-16 21:19:00,37.4,20.9,-100.00,North,-999,-999.0,-999.0,51,-99.99,,,-99.99,WSDL version 420,2013-02-17 04:19:00,
2013-02-16 21:24:00,37.3,20.7,-100.00,North,-999,-999.0,-999.0,51,-99.99,,,-99.99,WSDL version 420,2013-02-17 04:24:00,
2013-02-16 21:29:00,37.2,20.8,-100.00,North,-999,-999.0,-999.0,51,-99.99,,,-99.99,WSDL version 420,2013-02-17 04:29:00,
2013-02-16 21:34:00,37.3,20.8,-100.00,North,-999,-999.0,-999.0,51,-99.99,,,-99.99,WSDL version 420,2013-02-17 04:34:00,
2013-02-16 21:39:00,37.6,21.1,-100.00,North,-999,-999.0,-999.0,51,-99.99,,,-99.99,WSDL version 420,2013-02-17 04:39:00,
2013-02-16 21:44:00,37.7,21.2,-100.00,North,-999,-999.0,-999.0,51,-99.99,,,-99.99,WSDL version 420,2013-02-17 04:44:00,
2013-02-16 21:49:00,37.9,21.4,-100.00,North,-999,-999.0,-999.0,51,-99.99,,,-99.99,WSDL version 420,2013-02-17 04:49:00,
2013-02-16 21:54:00,38.1,21.5,-100.00,North,-999,-999.0,-999.0,51,-99.99,,,-99.99,WSDL version 420,2013-02-17 04:54:00,
2013-02-16 21:59:00,38.2,21.7,-100.00,North,-999,-999.0,-999.0,51,-99.99,,,-99.99,WSDL version 420,2013-02-17 04:59:00,
2013-02-16 22:00:00,38.2,21.7,-100.00,North,-999,-999.0,-999.0,51,-99.99,,,-99.99,WSDL version 420,2013-02-17 05:00:00,
2013-02-16 22:02:00,38.3,21.8,-100.00,North,-999,-999.0,-999.0,51,-99.99,,,-99.99,WSDL version 420,2013-02-17 05:02:00,
2013-02-16 22:03:00,38.3,21.8,-100.00,North,-999,-999.0,-999.0,51,-99.99,,,-99.99,WSDL version 420,2013-02-17 05:03:00,
2013-02-16 22:08:00,38.4,21.3,-100.00,North,-999,-999.0,-999.0,50,-99.99,,,-99.99,WSDL version 420,2013-02-17 05:08:00,
2013-02-16 22:13:00,38.5,21.5,-100.00,North,-999,-999.0,-999.0,50,-99.99,,,-99.99,WSDL version 420,2013-02-17 05:13:00,
2013-02-16 22:18:00,38.5,21.5,-100.00,North,-999,-999.0,-999.0,50,-99.99,,,-99.99,WSDL version 420,2013-02-17 05:18:00,
2013-02-16 22:23:00,38.5,21.5,-100.00,North,-999,-999.0,-999.0,50,-99.99,,,-99.99,WSDL version 420,2013-02-17 05:23:00,
2013-02-16 22:28:00,38.4,21.4,-100.00,North,-999,-999.0,-999.0,50,-99.99,,,-99.99,WSDL version 420,2013-02-17 05:28:00,
2013-02-16 22:33:00,38.3,21.3,-100.00,North,-999,-999.0,-999.0,50,-99.99,,,-99.99,WSDL version 420,2013-02-17 05:33:00,
2013-02-16 22:38:00,38.3,21.3,-100.00,North,-999,-999.0,-999.0,50,-99.99,,,-99.99,WSDL version 420,2013-02-17 05:38:00,
2013-02-16 22:43:00,38.4,21.4,-100.00,North,-999,-999.0,-999.0,50,-99.99,,,-99.99,WSDL version 420,2013-02-17 05:43:00,
2013-02-16 22:47:00,38.5,21.5,-100.00,North,-999,-999.0,-999.0,50,-99.99,,,-99.99,WSDL version 420,2013-02-17 05:47:00,
2013-02-16 22:52:00,38.5,21.5,-100.00,North,-999,-999.0,-999.0,50,-99.99,,,-99.99,WSDL version 420,2013-02-17 05:52:00,
2013-02-16 22:57:00,38.5,21.5,-100.00,North,-999,-999.0,-999.0,50,-99.99,,,-99.99,WSDL version 420,2013-02-17 05:57:00,
2013-02-16 23:02:00,38.5,21.5,-100.00,North,-999,-999.0,-999.0,50,-99.99,,,-99.99,WSDL version 420,2013-02-17 06:02:00,
2013-02-16 23:07:00,38.4,21.4,-100.00,North,-999,-999.0,-999.0,50,-99.99,,,-99.99,WSDL version 420,2013-02-17 06:07:00,
2013-02-16 23:12:00,38.5,21.5,-100.00,North,-999,-999.0,-999.0,50,-99.99,,,-99.99,WSDL version 420,2013-02-17 06:12:00,
2013-02-16 23:17:00,38.7,21.6,-100.00,North,-999,-999.0,-999.0,50,-99.99,,,-99.99,WSDL version 420,2013-02-17 06:17:00,
2013-02-16 23:22:00,38.7,21.6,-100.00,North,-999,-999.0,-999.0,50,-99.99,,,-99.99,WSDL version 420,2013-02-17 06:22:00,
2013-02-16 23:27:00,38.5,21.5,-100.00,North,-999,-999.0,-999.0,50,-99.99,,,-99.99,WSDL version 420,2013-02-17 06:27:00,
2013-02-16 23:32:00,38.5,21.5,-100.00,North,-999,-999.0,-999.0,50,-99.99,,,-99.99,WSDL version 420,2013-02-17 06:32:00,
2013-02-16 23:37:00,38.5,21.5,-100.00,North,-999,-999.0,-999.0,50,-99.99,,,-99.99,WSDL version 420,2013-02-17 06:37:00,
2013-02-16 23:42:00,38.5,21.5,-100.00,North,-999,-999.0,-999.0,50,-99.99,,,-99.99,WSDL version 420,2013-02-17 06:42:00,
2013-02-16 23:47:00,38.5,21.5,-100.00,North,-999,-999.0,-999.0,50,-99.99,,,-99.99,WSDL version 420,2013-02-17 06:47:00,
2013-02-16 23:52:00,38.5,21.5,-100.00,North,-999,-999.0,-999.0,50,-99.99,,,-99.99,WSDL version 420,2013-02-17 06:52:00,
2013-02-16 23:57:00,38.5,21.5,-100.00,North,-999,-999.0,-999.0,50,-99.99,,,-99.99,WSDL version 420,2013-02-17 06:57:00,